Time;durP1;ratioP1;P1;durP2;ratioP2;P2;SDS_P1;SDS_P2;PMS_P1;PMS_P2;Temp;Humidity;BMP_temperature;BMP_pressure;BME280_temperature;BME280_humidity;BME280_pressure;Samples;Min_cycle;Max_cycle;Signal;HPM_P1;HPM_P2
2021/01/22 00:02:00;;;;;;;3.65;1.67;;;19.60;49.40;;;;;;5066242;28;20499;-64
2021/01/22 00:04:29;;;;;;;5.00;2.35;;;19.60;49.40;;;;;;5065745;28;20059;-65
2021/01/22 00:06:55;;;;;;;3.75;1.27;;;19.60;49.40;;;;;;5065252;28;20025;-64
2021/01/22 00:09:20;;;;;;;7.18;1.85;;;19.60;49.10;;;;;;5066340;28;20090;-64
2021/01/22 00:11:46;;;;;;;5.13;2.03;;;19.60;49.10;;;;;;5064197;28;20044;-65
2021/01/22 00:14:11;;;;;;;4.47;2.13;;;19.70;49.20;;;;;;5065829;28;20082;-64
2021/01/22 00:16:37;;;;;;;2.20;1.60;;;19.70;49.20;;;;;;5065360;28;20060;-64
2021/01/22 00:19:02;;;;;;;3.63;1.67;;;19.70;49.10;;;;;;5065540;28;20075;-63
2021/01/22 00:21:29;;;;;;;3.72;1.67;;;19.70;49.00;;;;;;5064744;28;20060;-63
2021/01/22 00:23:55;;;;;;;4.40;1.45;;;19.70;49.00;;;;;;5065175;28;20491;-65
2021/01/22 00:26:20;;;;;;;2.70;1.55;;;19.70;49.00;;;;;;5065801;28;20043;-64
2021/01/22 00:28:46;;;;;;;3.75;1.48;;;19.70;48.80;;;;;;5065130;28;20644;-64
2021/01/22 00:31:11;;;;;;;2.38;1.55;;;19.80;49.00;;;;;;5065292;28;20038;-64
2021/01/22 00:33:37;;;;;;;3.65;1.60;;;19.80;48.90;;;;;;5047485;28;20047;-64
2021/01/22 00:36:03;;;;;;;3.58;1.60;;;19.80;49.00;;;;;;5064251;28;20435;-65
2021/01/22 00:38:29;;;;;;;1.60;1.17;;;19.80;48.90;;;;;;5065026;28;20115;-65
2021/01/22 00:40:54;;;;;;;3.80;1.60;;;19.80;48.90;;;;;;5065226;28;20117;-64
2021/01/22 00:43:19;;;;;;;2.55;1.58;;;19.90;48.90;;;;;;5063458;28;20029;-64
2021/01/22 00:45:45;;;;;;;1.50;0.90;;;19.90;48.80;;;;;;5065225;28;20453;-65
2021/01/22 00:48:10;;;;;;;2.40;1.40;;;19.90;48.80;;;;;;5065318;28;20033;-64
2021/01/22 00:50:36;;;;;;;3.72;1.20;;;19.90;48.80;;;;;;5065316;28;20048;-64
2021/01/22 00:53:02;;;;;;;2.42;1.42;;;19.90;48.90;;;;;;5064823;28;20032;-64
2021/01/22 00:55:27;;;;;;;2.78;1.55;;;19.90;48.70;;;;;;5064398;28;20067;-65
2021/01/22 00:57:53;;;;;;;2.42;1.48;;;19.90;48.70;;;;;;5064703;28;20605;-64
2021/01/22 01:00:18;;;;;;;3.25;1.40;;;19.90;48.60;;;;;;5064604;28;20029;-64
2021/01/22 01:02:44;;;;;;;2.00;1.10;;;19.90;48.60;;;;;;5056301;28;20089;-64
2021/01/22 01:05:10;;;;;;;3.42;1.55;;;19.90;48.60;;;;;;5065032;28;20461;-64
2021/01/22 01:07:35;;;;;;;2.55;1.23;;;19.90;48.60;;;;;;5046260;28;20052;-63
2021/01/22 01:10:01;;;;;;;2.25;1.30;;;19.90;48.60;;;;;;5063804;28;20036;-65
2021/01/22 01:12:27;;;;;;;2.72;1.45;;;20.00;48.60;;;;;;5064977;28;20386;-65
2021/01/22 01:14:52;;;;;;;2.75;1.30;;;20.00;48.50;;;;;;5057509;28;20031;-63
2021/01/22 01:17:18;;;;;;;2.45;1.10;;;20.00;48.50;;;;;;5064481;28;20219;-64
2021/01/22 01:19:43;;;;;;;3.13;1.40;;;20.00;48.50;;;;;;5063825;28;20491;-66
2021/01/22 01:22:09;;;;;;;1.98;1.02;;;20.00;48.50;;;;;;5063813;28;20094;-66
2021/01/22 01:24:34;;;;;;;2.80;1.17;;;20.00;48.50;;;;;;5063647;28;20033;-64
2021/01/22 01:27:00;;;;;;;2.30;1.25;;;20.00;48.50;;;;;;5064482;28;20095;-65
2021/01/22 01:29:25;;;;;;;2.00;1.20;;;20.00;48.50;;;;;;5064420;28;20036;-64
2021/01/22 01:31:51;;;;;;;1.73;0.93;;;20.00;48.50;;;;;;5063719;28;20039;-65
2021/01/22 01:34:16;;;;;;;1.42;0.68;;;20.00;48.40;;;;;;5064146;28;20445;-66
2021/01/22 01:36:42;;;;;;;3.05;1.30;;;20.10;48.40;;;;;;5064171;28;20045;-64
2021/01/22 01:39:07;;;;;;;1.50;1.00;;;20.10;48.40;;;;;;5064011;28;20103;-66
2021/01/22 01:41:33;;;;;;;1.70;0.93;;;20.00;48.40;;;;;;5064328;28;20052;-66
2021/01/22 01:43:58;;;;;;;1.60;0.75;;;20.10;48.50;;;;;;5063855;28;20055;-63
2021/01/22 01:46:24;;;;;;;2.40;0.90;;;20.10;48.50;;;;;;5064505;28;20107;-65
2021/01/22 01:48:49;;;;;;;2.05;1.10;;;20.10;48.40;;;;;;5062034;28;20062;-64
2021/01/22 01:51:15;;;;;;;1.50;0.85;;;20.10;48.40;;;;;;5046192;28;20140;-66
2021/01/22 01:53:40;;;;;;;1.63;1.10;;;20.10;48.30;;;;;;5028773;28;20113;-65
2021/01/22 01:56:06;;;;;;;1.73;0.85;;;20.10;48.40;;;;;;5063760;28;20037;-64
2021/01/22 01:58:31;;;;;;;1.70;1.10;;;20.10;48.40;;;;;;5065485;28;20032;-62
2021/01/22 02:00:57;;;;;;;1.95;1.10;;;20.10;48.30;;;;;;5046500;28;20037;-64
2021/01/22 02:03:23;;;;;;;1.65;0.80;;;20.10;48.30;;;;;;5046322;28;20048;-64
2021/01/22 02:05:48;;;;;;;1.40;0.82;;;20.10;48.30;;;;;;5063668;28;20033;-64
2021/01/22 02:08:14;;;;;;;1.38;0.73;;;20.10;48.30;;;;;;5063643;28;20029;-59
2021/01/22 02:10:40;;;;;;;1.98;1.10;;;20.10;48.30;;;;;;5063771;28;20036;-64
2021/01/22 02:13:05;;;;;;;1.23;0.80;;;20.00;48.20;;;;;;5029014;28;20097;-65
2021/01/22 02:15:31;;;;;;;2.10;1.00;;;20.00;48.30;;;;;;5046087;28;20033;-64
2021/01/22 02:17:56;;;;;;;3.10;0.70;;;20.00;48.40;;;;;;5045497;28;20506;-64
2021/01/22 02:20:46;;;;;;;1.33;0.80;;;20.00;48.30;;;;;;5045755;28;20086;-64
2021/01/22 02:23:13;;;;;;;1.05;0.73;;;20.00;48.30;;;;;;5063030;28;20454;-65
2021/01/22 02:25:40;;;;;;;0.90;0.70;;;20.00;48.30;;;;;;5045548;28;20116;-64
2021/01/22 02:28:11;;;;;;;2.15;0.98;;;20.00;48.30;;;;;;5045286;28;20029;-64
2021/01/22 02:30:36;;;;;;;0.77;0.50;;;19.90;48.30;;;;;;5063261;28;20530;-64
2021/01/22 02:33:03;;;;;;;1.10;0.65;;;19.90;48.30;;;;;;5044637;28;21129;-64
2021/01/22 02:35:29;;;;;;;1.65;1.08;;;19.90;48.40;;;;;;5043819;28;20071;-64
2021/01/22 02:37:54;;;;;;;1.27;0.80;;;19.90;48.50;;;;;;5044869;28;20040;-64
2021/01/22 02:40:20;;;;;;;2.67;0.98;;;19.80;48.40;;;;;;5029137;28;20021;-65
2021/01/22 02:42:46;;;;;;;0.88;0.70;;;19.80;48.50;;;;;;5045720;28;20036;-64
2021/01/22 02:45:12;;;;;;;1.58;0.82;;;19.80;48.50;;;;;;5045358;28;20024;-62
2021/01/22 02:47:38;;;;;;;2.22;0.80;;;19.80;48.60;;;;;;5045708;28;20039;-64
2021/01/22 02:50:05;;;;;;;0.85;0.73;;;19.80;48.60;;;;;;5029103;28;20032;-64
2021/01/22 02:52:30;;;;;;;1.15;0.70;;;19.70;48.50;;;;;;5062939;28;20032;-63
2021/01/22 02:54:56;;;;;;;1.40;0.60;;;19.80;48.60;;;;;;5062598;28;20499;-63
2021/01/22 02:57:34;;;;;;;1.02;0.50;;;19.70;48.50;;;;;;5045010;28;20050;-61
2021/01/22 03:00:06;;;;;;;0.90;0.50;;;19.70;48.50;;;;;;5046052;28;20056;-64
2021/01/22 03:02:35;;;;;;;2.00;1.00;;;19.70;48.60;;;;;;5045363;28;20535;-64
2021/01/22 03:05:00;;;;;;;0.60;0.55;;;19.70;48.60;;;;;;5063340;28;20052;-64
2021/01/22 03:07:37;;;;;;;1.05;0.55;;;19.70;48.60;;;;;;5062814;28;20032;-64
2021/01/22 03:10:03;;;;;;;0.75;0.60;;;19.70;48.60;;;;;;5054015;28;20040;-62
2021/01/22 03:12:29;;;;;;;0.93;0.57;;;19.60;48.60;;;;;;5045505;28;20021;-64
2021/01/22 03:14:54;;;;;;;0.70;0.47;;;19.70;48.60;;;;;;5044497;28;20407;-62
2021/01/22 03:17:20;;;;;;;0.80;0.57;;;19.60;48.60;;;;;;5028577;28;20399;-65
2021/01/22 03:19:46;;;;;;;2.15;0.75;;;19.60;48.60;;;;;;5044873;28;20028;-64
2021/01/22 03:22:12;;;;;;;0.80;0.50;;;19.60;48.60;;;;;;5045121;28;20033;-65
2021/01/22 03:24:38;;;;;;;0.90;0.60;;;19.60;48.70;;;;;;5062477;28;21510;-64
2021/01/22 03:27:03;;;;;;;1.77;0.60;;;19.60;48.70;;;;;;5062697;28;20025;-64
2021/01/22 03:29:29;;;;;;;0.80;0.50;;;19.60;48.70;;;;;;5062915;28;20120;-64
2021/01/22 03:31:56;;;;;;;0.65;0.60;;;19.60;48.60;;;;;;5062682;28;20036;-65
2021/01/22 03:34:26;;;;;;;0.70;0.50;;;19.60;48.50;;;;;;5028711;28;20647;-63
2021/01/22 03:36:52;;;;;;;1.70;0.50;;;19.60;48.50;;;;;;5062517;28;20029;-65
2021/01/22 03:39:17;;;;;;;1.13;0.57;;;19.60;48.50;;;;;;5062914;28;20040;-64
2021/01/22 03:41:43;;;;;;;0.82;0.40;;;19.60;48.50;;;;;;5062858;28;20044;-65
2021/01/22 03:44:08;;;;;;;0.80;0.40;;;19.60;48.40;;;;;;5061809;28;20421;-60
2021/01/22 03:46:34;;;;;;;1.10;0.80;;;19.60;48.30;;;;;;5064616;28;20090;-64
2021/01/22 03:48:59;;;;;;;0.80;0.50;;;19.70;48.40;;;;;;5066258;28;20029;-63
2021/01/22 03:51:25;;;;;;;0.60;0.52;;;19.60;48.30;;;;;;5065965;28;20041;-64
2021/01/22 03:53:50;;;;;;;0.70;0.52;;;19.70;48.30;;;;;;5066250;28;20502;-61
2021/01/22 03:56:16;;;;;;;2.00;0.82;;;19.70;48.20;;;;;;5065851;28;21801;-65
2021/01/22 03:58:41;;;;;;;1.17;0.70;;;19.70;48.20;;;;;;5066790;28;20029;-64
2021/01/22 04:01:07;;;;;;;1.20;0.60;;;19.70;48.20;;;;;;5065727;28;20036;-64
2021/01/22 04:03:32;;;;;;;0.68;0.60;;;19.70;48.20;;;;;;5066270;28;20760;-64
2021/01/22 04:05:58;;;;;;;0.80;0.63;;;19.70;48.20;;;;;;5065910;28;20029;-64
2021/01/22 04:08:23;;;;;;;0.60;0.50;;;19.70;48.10;;;;;;5065680;28;20043;-64
2021/01/22 04:10:49;;;;;;;1.50;0.70;;;19.70;48.10;;;;;;5065812;28;20024;-64
2021/01/22 04:13:14;;;;;;;1.38;0.68;;;19.70;48.20;;;;;;5066099;28;20064;-64
2021/01/22 04:15:40;;;;;;;1.05;0.55;;;19.70;48.00;;;;;;5065724;28;20135;-64
2021/01/22 04:18:05;;;;;;;1.95;0.60;;;19.70;48.00;;;;;;5065733;28;20036;-65
2021/01/22 04:20:31;;;;;;;2.50;0.47;;;19.70;48.00;;;;;;5065560;28;20025;-65
2021/01/22 04:22:56;;;;;;;0.80;0.47;;;19.70;48.00;;;;;;5065831;28;20027;-64
2021/01/22 04:25:22;;;;;;;0.77;0.45;;;19.70;47.90;;;;;;5065999;28;20830;-64
2021/01/22 04:27:47;;;;;;;0.50;0.50;;;19.70;48.00;;;;;;5065286;28;20020;-64
2021/01/22 04:30:13;;;;;;;0.75;0.50;;;19.70;47.90;;;;;;5066088;28;20031;-61
2021/01/22 04:32:39;;;;;;;1.15;0.60;;;19.70;47.90;;;;;;5047500;28;20049;-65
2021/01/22 04:35:05;;;;;;;0.60;0.40;;;19.70;47.90;;;;;;5065447;28;20033;-65
2021/01/22 04:37:30;;;;;;;0.73;0.50;;;19.70;47.90;;;;;;5064670;28;20406;-64
2021/01/22 04:39:56;;;;;;;0.50;0.50;;;19.70;47.90;;;;;;5064798;28;20044;-65
2021/01/22 04:42:21;;;;;;;1.98;0.55;;;19.70;47.90;;;;;;5064814;28;20032;-64
2021/01/22 04:44:48;;;;;;;0.40;0.40;;;19.70;47.90;;;;;;5065462;28;20112;-61
2021/01/22 04:47:14;;;;;;;1.27;0.57;;;19.70;47.90;;;;;;5064434;28;21541;-65
2021/01/22 04:49:39;;;;;;;1.88;0.50;;;19.70;47.90;;;;;;5046724;28;20964;-64
2021/01/22 04:52:04;;;;;;;0.40;0.40;;;19.70;47.90;;;;;;5030875;28;20040;-64
2021/01/22 04:54:39;;;;;;;1.00;0.60;;;19.70;47.80;;;;;;5038667;28;20040;-62
2021/01/22 04:57:06;;;;;;;0.75;0.45;;;19.70;47.80;;;;;;5047222;28;20951;-64
2021/01/22 04:59:49;;;;;;;1.20;0.68;;;19.70;47.80;;;;;;5063825;28;20028;-65
2021/01/22 05:02:14;;;;;;;0.98;0.70;;;19.70;47.80;;;;;;5024905;28;20110;-64
2021/01/22 05:04:40;;;;;;;0.75;0.50;;;19.70;48.40;;;;;;5064972;28;20056;-64
2021/01/22 05:07:09;;;;;;;1.38;0.50;;;19.70;47.80;;;;;;5064328;28;20113;-65
2021/01/22 05:09:35;;;;;;;1.83;0.77;;;19.70;47.80;;;;;;5065094;28;20481;-64
2021/01/22 05:12:00;;;;;;;0.65;0.65;;;19.70;47.80;;;;;;5046571;28;20051;-65
2021/01/22 05:14:26;;;;;;;1.88;0.45;;;19.70;47.70;;;;;;5064680;28;20041;-64
2021/01/22 05:17:04;;;;;;;0.60;0.30;;;19.70;47.70;;;;;;5046163;28;20037;-65
2021/01/22 05:19:30;;;;;;;0.68;0.50;;;19.70;47.70;;;;;;5040241;28;20033;-64
2021/01/22 05:21:56;;;;;;;0.65;0.60;;;19.70;47.70;;;;;;5064497;28;20128;-63
2021/01/22 05:24:23;;;;;;;0.60;0.50;;;19.70;47.70;;;;;;5045887;28;20055;-65
2021/01/22 05:26:57;;;;;;;0.65;0.50;;;19.70;47.70;;;;;;5063314;28;20036;-65
2021/01/22 05:29:23;;;;;;;0.93;0.57;;;19.70;47.70;;;;;;5063926;28;20510;-64
2021/01/22 05:31:48;;;;;;;2.75;1.27;;;19.70;47.80;;;;;;5064059;28;20263;-65
2021/01/22 05:34:14;;;;;;;3.90;0.80;;;19.70;47.80;;;;;;5046633;28;20622;-64
2021/01/22 05:36:39;;;;;;;1.25;0.50;;;19.70;47.90;;;;;;5064452;28;20087;-66
2021/01/22 05:39:05;;;;;;;1.23;0.70;;;19.80;47.80;;;;;;5043052;28;20135;-67
2021/01/22 05:41:30;;;;;;;1.08;0.60;;;19.80;47.80;;;;;;5056517;28;20118;-65
2021/01/22 05:43:56;;;;;;;4.32;0.80;;;19.70;47.70;;;;;;5044881;28;20144;-64
2021/01/22 05:46:25;;;;;;;4.93;0.80;;;19.70;47.70;;;;;;5045830;28;20033;-62
2021/01/22 05:49:08;;;;;;;4.25;0.80;;;19.70;47.70;;;;;;5064062;28;20465;-65
2021/01/22 05:51:33;;;;;;;3.38;0.88;;;19.70;47.70;;;;;;5063607;28;20044;-65
2021/01/22 05:53:59;;;;;;;1.77;0.43;;;19.80;47.70;;;;;;5063417;28;20531;-67
2021/01/22 05:56:24;;;;;;;3.35;0.88;;;19.70;47.60;;;;;;5063581;28;20043;-66
2021/01/22 05:58:50;;;;;;;4.05;1.05;;;19.70;47.60;;;;;;5064335;28;20028;-66
2021/01/22 06:01:16;;;;;;;2.47;0.63;;;19.80;47.60;;;;;;5062811;28;20040;-67
2021/01/22 06:03:43;;;;;;;2.17;1.02;;;19.80;47.70;;;;;;5045904;28;20056;-67
2021/01/22 06:06:09;;;;;;;5.00;0.50;;;19.70;47.60;;;;;;5045571;28;20513;-67
2021/01/22 06:08:50;;;;;;;2.33;0.95;;;19.70;47.60;;;;;;5063045;28;20131;-68
2021/01/22 06:11:16;;;;;;;3.05;0.80;;;19.80;47.60;;;;;;5063968;28;20040;-67
2021/01/22 06:13:44;;;;;;;1.23;0.80;;;19.70;47.50;;;;;;5062582;28;20036;-66
2021/01/22 06:16:10;;;;;;;1.67;0.60;;;19.70;47.50;;;;;;5008686;28;20511;-66
2021/01/22 06:18:35;;;;;;;2.50;0.93;;;19.70;47.50;;;;;;5045748;28;20127;-68
2021/01/22 06:21:14;;;;;;;6.03;1.35;;;19.70;47.50;;;;;;5045316;28;20032;-66
2021/01/22 06:23:40;;;;;;;3.55;1.00;;;19.70;47.50;;;;;;5063138;28;20036;-65
2021/01/22 06:26:05;;;;;;;6.20;1.10;;;19.80;47.60;;;;;;5063382;28;20044;-66
2021/01/22 06:28:31;;;;;;;6.60;1.20;;;19.80;47.70;;;;;;5062603;28;20495;-65
2021/01/22 06:30:57;;;;;;;6.20;1.80;;;19.80;47.60;;;;;;5045190;28;20401;-66
2021/01/22 06:33:22;;;;;;;6.75;1.98;;;19.80;47.60;;;;;;5063079;28;20039;-66
2021/01/22 06:35:48;;;;;;;6.38;2.10;;;19.80;47.60;;;;;;5027844;28;20024;-66
2021/01/22 06:38:13;;;;;;;7.22;2.60;;;19.70;47.50;;;;;;5044758;28;20028;-62
2021/01/22 06:40:39;;;;;;;9.73;2.70;;;19.70;47.50;;;;;;5027993;28;20092;-62
2021/01/22 06:43:06;;;;;;;10.13;3.45;;;19.70;47.50;;;;;;5062454;28;20024;-63
2021/01/22 06:45:32;;;;;;;14.52;5.13;;;19.70;47.60;;;;;;5027907;28;20056;-64
2021/01/22 06:48:07;;;;;;;14.88;4.82;;;19.70;47.80;;;;;;5063198;28;20023;-65
2021/01/22 06:50:37;;;;;;;12.48;4.75;;;19.80;47.90;;;;;;5047052;28;20036;-65
2021/01/22 06:53:12;;;;;;;12.23;3.80;;;19.80;47.80;;;;;;5046204;28;20025;-66
2021/01/22 06:55:53;;;;;;;12.27;4.95;;;19.80;47.70;;;;;;5063524;28;20067;-65
2021/01/22 06:58:28;;;;;;;11.93;4.13;;;19.70;47.60;;;;;;5063125;28;20870;-63
2021/01/22 07:01:02;;;;;;;11.57;3.88;;;19.70;47.50;;;;;;5063876;28;20025;-64
2021/01/22 07:03:36;;;;;;;9.45;4.25;;;19.70;47.50;;;;;;5063563;28;20021;-64
2021/01/22 07:06:05;;;;;;;12.47;4.27;;;19.70;47.40;;;;;;5063162;28;20028;-63
2021/01/22 07:08:49;;;;;;;7.72;3.95;;;19.70;47.40;;;;;;5028827;28;20255;-66
2021/01/22 07:11:14;;;;;;;13.85;3.22;;;19.70;47.40;;;;;;5064073;28;20040;-63
2021/01/22 07:13:42;;;;;;;8.20;3.65;;;19.70;47.40;;;;;;5062719;28;20039;-66
2021/01/22 07:16:09;;;;;;;7.30;3.33;;;19.70;47.40;;;;;;5045488;28;20522;-63
2021/01/22 07:18:57;;;;;;;8.00;3.40;;;19.60;47.40;;;;;;5063842;28;20166;-63
2021/01/22 07:21:22;;;;;;;16.58;4.15;;;19.60;47.40;;;;;;5067167;28;20553;-65
2021/01/22 07:23:50;;;;;;;7.95;3.53;;;19.60;47.40;;;;;;5066880;28;20041;-65
2021/01/22 07:26:15;;;;;;;5.22;2.90;;;19.60;47.40;;;;;;5049630;28;20040;-65
2021/01/22 07:28:51;;;;;;;7.85;3.28;;;19.60;47.40;;;;;;5032508;28;20077;-65
2021/01/22 07:31:56;;;;;;;6.50;3.03;;;19.60;47.40;;;;;;5067627;28;20035;-64
2021/01/22 07:34:41;;;;;;;5.68;2.72;;;19.60;47.40;;;;;;5065810;28;21156;-66
2021/01/22 07:37:08;;;;;;;8.63;2.75;;;19.50;47.40;;;;;;5066787;28;20520;-65
2021/01/22 07:39:34;;;;;;;10.48;3.25;;;19.60;47.40;;;;;;5067501;28;20032;-64
2021/01/22 07:42:12;;;;;;;8.93;3.22;;;19.60;47.50;;;;;;5048884;28;20095;-65
2021/01/22 07:44:38;;;;;;;8.35;3.17;;;19.50;47.50;;;;;;5067429;28;20095;-64
2021/01/22 07:47:06;;;;;;;10.82;2.97;;;19.50;47.50;;;;;;5067482;28;20040;-66
2021/01/22 07:49:31;;;;;;;9.73;2.60;;;19.50;47.60;;;;;;5068045;28;20024;-64
2021/01/22 07:52:03;;;;;;;8.65;2.85;;;19.50;47.60;;;;;;5066929;28;20082;-64
2021/01/22 07:54:41;;;;;;;7.40;2.35;;;19.50;47.60;;;;;;5050027;28;20025;-65
2021/01/22 07:57:14;;;;;;;5.40;2.30;;;19.50;47.60;;;;;;5048195;28;21555;-65
2021/01/22 07:59:39;;;;;;;8.13;2.08;;;19.50;47.60;;;;;;5066854;28;20141;-63
2021/01/22 08:02:12;;;;;;;5.60;2.53;;;19.40;47.50;;;;;;5066550;28;20518;-65
2021/01/22 08:04:37;;;;;;;5.43;2.10;;;19.40;47.50;;;;;;5067168;28;20032;-65
2021/01/22 08:07:03;;;;;;;10.32;2.28;;;19.40;47.60;;;;;;5049585;28;20033;-63
2021/01/22 08:09:28;;;;;;;6.93;2.30;;;19.50;47.60;;;;;;5067012;28;20446;-62
2021/01/22 08:12:08;;;;;;;9.38;2.92;;;19.40;47.60;;;;;;5066264;28;20075;-65
2021/01/22 08:14:34;;;;;;;5.13;2.22;;;19.40;47.60;;;;;;5066677;28;20499;-65
2021/01/22 08:17:00;;;;;;;7.82;1.83;;;19.40;47.60;;;;;;5070900;28;20025;-63
2021/01/22 08:19:25;;;;;;;6.82;2.50;;;19.40;47.60;;;;;;5068602;28;20044;-64
2021/01/22 08:21:51;;;;;;;9.25;2.47;;;19.40;47.60;;;;;;5066683;28;20071;-65
2021/01/22 08:24:17;;;;;;;11.40;2.53;;;19.40;47.60;;;;;;5030944;28;20075;-64
2021/01/22 08:26:42;;;;;;;7.43;2.20;;;19.40;47.60;;;;;;5048411;28;20024;-65
2021/01/22 08:29:09;;;;;;;5.10;2.67;;;19.40;47.60;;;;;;5048144;28;20115;-65
2021/01/22 08:31:35;;;;;;;6.28;2.33;;;19.40;47.60;;;;;;5047650;28;20070;-64
2021/01/22 08:34:01;;;;;;;5.22;1.73;;;19.40;47.60;;;;;;5031931;28;20156;-63
2021/01/22 08:36:27;;;;;;;4.18;2.40;;;19.40;47.60;;;;;;5048422;28;20028;-64
2021/01/22 08:38:56;;;;;;;6.50;1.73;;;19.40;47.50;;;;;;5032261;28;20403;-64
2021/01/22 08:41:25;;;;;;;5.82;2.58;;;19.40;47.50;;;;;;5066309;28;20498;-65
2021/01/22 08:43:52;;;;;;;3.53;1.70;;;19.40;47.50;;;;;;5066372;28;20032;-64
2021/01/22 08:46:18;;;;;;;4.00;1.73;;;19.40;47.50;;;;;;5066272;28;20029;-65
2021/01/22 08:48:43;;;;;;;5.85;1.90;;;19.50;47.50;;;;;;5066486;28;20025;-65
2021/01/22 08:51:09;;;;;;;3.00;1.75;;;19.40;47.40;;;;;;5066485;28;20025;-66
2021/01/22 08:53:35;;;;;;;4.28;1.67;;;19.40;47.40;;;;;;5066560;28;20068;-64
2021/01/22 08:56:11;;;;;;;3.75;1.38;;;19.40;47.40;;;;;;5031435;28;20058;-64
2021/01/22 08:59:08;;;;;;;2.50;1.55;;;19.50;47.30;;;;;;5066349;28;20044;-65
2021/01/22 09:01:56;;;;;;;2.20;1.40;;;19.50;47.30;;;;;;5066315;28;20430;-65
2021/01/22 09:04:26;;;;;;;3.75;1.52;;;19.50;47.20;;;;;;5065911;28;20031;-65
2021/01/22 09:07:01;;;;;;;2.92;1.65;;;19.50;47.20;;;;;;5065731;28;20042;-66
2021/01/22 09:09:44;;;;;;;3.10;1.35;;;19.60;47.20;;;;;;5065416;28;20075;-65
2021/01/22 09:12:19;;;;;;;2.00;1.17;;;19.60;47.10;;;;;;5065296;28;20028;-65
2021/01/22 09:14:55;;;;;;;3.03;1.52;;;19.60;47.20;;;;;;5065869;28;20498;-66
2021/01/22 09:17:33;;;;;;;2.50;1.20;;;19.60;47.10;;;;;;5065541;28;20028;-66
2021/01/22 09:19:59;;;;;;;5.07;1.48;;;19.60;47.00;;;;;;5065519;28;20092;-67
2021/01/22 09:22:26;;;;;;;2.17;1.05;;;19.70;47.10;;;;;;5065603;28;20032;-68
2021/01/22 09:24:51;;;;;;;2.80;1.40;;;19.70;47.10;;;;;;5065187;28;20111;-67
2021/01/22 09:27:17;;;;;;;3.63;1.35;;;19.70;47.00;;;;;;5065582;28;20104;-67
2021/01/22 09:29:42;;;;;;;2.33;1.35;;;19.70;47.00;;;;;;5066088;28;20539;-68
2021/01/22 09:32:08;;;;;;;3.17;1.70;;;19.80;47.00;;;;;;5066094;28;20078;-67
2021/01/22 09:34:34;;;;;;;2.75;1.83;;;19.70;46.90;;;;;;5065390;28;20123;-67
2021/01/22 09:37:00;;;;;;;4.20;1.30;;;19.70;47.00;;;;;;5047883;28;20086;-65
2021/01/22 09:39:26;;;;;;;2.17;1.73;;;19.70;46.90;;;;;;5064507;28;20383;-67
2021/01/22 09:41:51;;;;;;;3.35;1.00;;;19.70;46.90;;;;;;5065859;28;20074;-65
2021/01/22 09:44:18;;;;;;;3.15;1.73;;;19.70;46.90;;;;;;5064640;28;20025;-67
2021/01/22 09:46:44;;;;;;;2.53;1.30;;;19.80;46.90;;;;;;5065019;28;20033;-67
2021/01/22 09:49:09;;;;;;;4.15;1.60;;;19.70;46.80;;;;;;5065537;28;20025;-66
2021/01/22 09:51:35;;;;;;;3.45;1.77;;;19.80;46.80;;;;;;5065152;28;20044;-65
2021/01/22 09:54:00;;;;;;;4.03;1.50;;;19.70;46.70;;;;;;5064616;28;20025;-65
2021/01/22 09:56:26;;;;;;;2.60;1.35;;;19.80;46.70;;;;;;5065024;28;20112;-66
2021/01/22 09:58:51;;;;;;;2.35;1.10;;;19.80;46.80;;;;;;5064936;28;20584;-65
2021/01/22 10:01:17;;;;;;;1.77;0.95;;;19.80;46.70;;;;;;5064946;28;20090;-67
2021/01/22 10:03:42;;;;;;;2.67;1.38;;;19.80;46.70;;;;;;5065114;28;20020;-66
2021/01/22 10:06:12;;;;;;;2.13;1.30;;;19.80;46.70;;;;;;5046356;28;20717;-66
2021/01/22 10:08:37;;;;;;;2.50;1.17;;;19.80;47.40;;;;;;5064643;28;20087;-65
2021/01/22 10:11:03;;;;;;;1.15;0.98;;;19.80;47.40;;;;;;5064549;28;20037;-67
2021/01/22 10:13:28;;;;;;;1.60;1.13;;;19.90;46.80;;;;;;5046415;28;20028;-67
2021/01/22 10:15:55;;;;;;;2.83;1.35;;;19.90;46.80;;;;;;5064674;28;20392;-66
2021/01/22 10:18:20;;;;;;;2.08;1.08;;;19.90;46.90;;;;;;5064741;28;20108;-67
2021/01/22 10:20:49;;;;;;;2.53;1.20;;;19.90;46.80;;;;;;5064194;28;20441;-66
2021/01/22 10:23:14;;;;;;;2.35;1.17;;;19.90;46.90;;;;;;5065574;28;20027;-67
2021/01/22 10:25:39;;;;;;;2.95;1.52;;;19.80;46.90;;;;;;5064456;28;20024;-67
2021/01/22 10:28:05;;;;;;;2.95;1.20;;;19.90;46.90;;;;;;5063694;28;20036;-67
2021/01/22 10:30:31;;;;;;;1.48;1.10;;;19.90;47.00;;;;;;5044170;28;20017;-65
2021/01/22 10:32:56;;;;;;;0.80;0.60;;;19.90;46.90;;;;;;5044829;28;20108;-67
2021/01/22 10:35:21;;;;;;;2.80;0.98;;;19.90;46.90;;;;;;5043887;28;20017;-66
2021/01/22 10:37:47;;;;;;;3.75;1.17;;;19.90;46.90;;;;;;5044344;28;20045;-69
2021/01/22 10:40:13;;;;;;;1.50;0.90;;;19.90;47.00;;;;;;5045404;28;20028;-66
2021/01/22 10:42:38;;;;;;;2.35;1.00;;;19.90;47.00;;;;;;5044865;28;20029;-68
2021/01/22 10:45:04;;;;;;;2.05;0.90;;;19.90;47.00;;;;;;5044108;28;20052;-67
2021/01/22 10:47:30;;;;;;;2.45;0.95;;;19.80;46.90;;;;;;5044416;28;20025;-65
2021/01/22 10:49:56;;;;;;;2.83;0.77;;;19.80;47.00;;;;;;5026131;28;20036;-68
2021/01/22 10:52:21;;;;;;;3.33;1.02;;;19.80;46.90;;;;;;5044242;28;20056;-68
2021/01/22 10:54:47;;;;;;;2.78;1.23;;;19.70;46.90;;;;;;5028385;28;20040;-68
2021/01/22 10:57:12;;;;;;;1.55;0.93;;;19.70;47.10;;;;;;5048558;28;20491;-66
2021/01/22 10:59:38;;;;;;;1.50;0.90;;;19.70;47.10;;;;;;5030666;28;22170;-67
2021/01/22 11:02:10;;;;;;;2.10;1.00;;;19.70;47.00;;;;;;5030412;28;20025;-67
2021/01/22 11:04:35;;;;;;;1.73;1.10;;;19.70;47.20;;;;;;5029951;28;20025;-66
2021/01/22 11:07:03;;;;;;;1.95;1.08;;;19.70;47.30;;;;;;5013653;28;20852;-66
2021/01/22 11:09:29;;;;;;;1.52;1.00;;;19.70;47.50;;;;;;5029981;28;20056;-68
2021/01/22 11:11:55;;;;;;;3.15;1.15;;;19.70;47.70;;;;;;5030361;28;20037;-68
2021/01/22 11:14:20;;;;;;;3.33;1.35;;;19.70;48.60;;;;;;5029336;28;20025;-70
2021/01/22 11:16:46;;;;;;;1.70;1.02;;;19.70;48.30;;;;;;5047635;28;20029;-65
2021/01/22 11:19:11;;;;;;;2.10;0.90;;;19.70;48.60;;;;;;5029483;28;20021;-64
2021/01/22 11:21:37;;;;;;;1.17;0.90;;;19.70;49.00;;;;;;5029952;28;20040;-67
2021/01/22 11:24:03;;;;;;;3.72;1.75;;;19.70;49.30;;;;;;5029110;28;20025;-68
2021/01/22 11:26:29;;;;;;;1.38;0.82;;;19.70;49.50;;;;;;5047017;28;20103;-67
2021/01/22 11:28:54;;;;;;;1.85;1.00;;;19.70;49.90;;;;;;4995751;28;20566;-66
2021/01/22 11:31:20;;;;;;;2.38;0.80;;;19.70;50.10;;;;;;5011402;28;20036;-67
2021/01/22 11:33:46;;;;;;;3.03;0.88;;;19.70;50.30;;;;;;5046546;28;20029;-67
2021/01/22 11:36:11;;;;;;;0.80;0.80;;;19.70;50.40;;;;;;5047050;28;20021;-64
2021/01/22 11:38:36;;;;;;;1.65;0.90;;;19.70;50.50;;;;;;5046498;28;20029;-66
2021/01/22 11:41:02;;;;;;;2.10;0.88;;;19.70;50.60;;;;;;5029889;28;20043;-68
2021/01/22 11:43:28;;;;;;;1.77;1.02;;;19.70;50.60;;;;;;5029840;28;20108;-65
2021/01/22 11:45:53;;;;;;;2.15;1.00;;;19.70;50.70;;;;;;5047725;28;20036;-68
2021/01/22 11:48:19;;;;;;;3.00;1.00;;;19.70;50.70;;;;;;5029917;28;20033;-66
2021/01/22 11:50:44;;;;;;;3.65;1.10;;;19.70;50.70;;;;;;5047507;28;20037;-66
2021/01/22 11:53:10;;;;;;;2.42;1.17;;;19.70;50.90;;;;;;5047413;28;20025;-67
2021/01/22 11:55:37;;;;;;;4.97;1.35;;;19.70;50.80;;;;;;5047316;28;20840;-67
2021/01/22 11:58:03;;;;;;;1.73;0.80;;;19.70;50.90;;;;;;5047568;28;20415;-67
2021/01/22 12:00:28;;;;;;;2.40;0.90;;;19.70;50.80;;;;;;4996970;28;20029;-67
2021/01/22 12:02:54;;;;;;;1.38;1.00;;;19.70;50.80;;;;;;5047028;28;20140;-65
2021/01/22 12:05:19;;;;;;;2.15;1.00;;;19.70;51.10;;;;;;5029860;28;20116;-67
2021/01/22 12:07:45;;;;;;;1.80;0.82;;;19.70;50.80;;;;;;5027298;28;20033;-65
2021/01/22 12:10:11;;;;;;;2.28;1.00;;;19.70;51.00;;;;;;4995551;28;20029;-66
2021/01/22 12:12:36;;;;;;;3.00;0.93;;;19.70;51.00;;;;;;5047060;28;20048;-67
2021/01/22 12:15:02;;;;;;;1.77;0.80;;;19.70;51.10;;;;;;5047391;28;20036;-67
2021/01/22 12:17:27;;;;;;;2.05;0.70;;;19.70;51.10;;;;;;5029076;28;20068;-64
2021/01/22 12:19:53;;;;;;;1.75;0.90;;;19.70;51.20;;;;;;5047667;28;20032;-67
2021/01/22 12:22:18;;;;;;;1.85;0.90;;;19.70;51.30;;;;;;5047356;28;20112;-66
2021/01/22 12:24:44;;;;;;;2.17;0.77;;;19.70;51.20;;;;;;5047085;28;20041;-66
2021/01/22 12:27:09;;;;;;;2.45;0.93;;;19.70;51.30;;;;;;5029151;28;20055;-66
2021/01/22 12:29:35;;;;;;;2.20;1.08;;;19.70;51.40;;;;;;5027871;28;20033;-66
2021/01/22 12:32:01;;;;;;;2.17;0.80;;;19.70;51.30;;;;;;5046325;28;20094;-68
2021/01/22 12:34:26;;;;;;;2.00;0.90;;;19.70;51.30;;;;;;5046827;28;20026;-66
2021/01/22 12:36:52;;;;;;;2.42;0.65;;;19.70;51.30;;;;;;5046124;28;21945;-66
2021/01/22 12:39:17;;;;;;;2.25;0.95;;;19.70;51.30;;;;;;5043369;28;20033;-67
2021/01/22 12:41:43;;;;;;;2.13;0.82;;;19.70;51.20;;;;;;5028827;28;20037;-67
2021/01/22 12:44:08;;;;;;;1.48;0.80;;;19.70;51.30;;;;;;5046343;28;20029;-65
2021/01/22 12:46:34;;;;;;;1.33;0.70;;;19.70;51.10;;;;;;5045884;28;20040;-67